createdAt,value
2023-05-08T00:11:01.579Z,1
2023-05-08T00:23:01.900Z,1
2023-05-08T00:35:01.673Z,1
2023-05-08T00:47:01.667Z,1
2023-05-08T00:59:01.799Z,1
2023-05-08T01:11:01.784Z,2
2023-05-08T01:23:01.738Z,2
2023-05-08T01:35:01.764Z,2
2023-05-08T01:47:01.931Z,2
2023-05-08T01:59:01.805Z,2
2023-05-08T02:11:01.750Z,3
2023-05-08T02:23:01.958Z,3
2023-05-08T02:35:03.365Z,3
2023-05-08T02:47:01.817Z,3
2023-05-08T02:59:01.751Z,3
2023-05-08T03:11:01.954Z,4
2023-05-08T03:23:01.895Z,4
2023-05-08T03:35:01.915Z,4
2023-05-08T03:47:01.880Z,4
2023-05-08T03:59:02.003Z,4
2023-05-08T04:11:01.926Z,5
2023-05-08T04:23:01.944Z,5
2023-05-08T04:35:01.881Z,5
2023-05-08T04:47:02.040Z,5
2023-05-08T04:59:01.993Z,5
2023-05-08T05:11:02.067Z,6
2023-05-08T05:23:01.904Z,6
2023-05-08T05:35:02.098Z,6
2023-05-08T05:47:02.012Z,6
2023-05-08T05:59:01.970Z,6
2023-05-08T06:11:02.109Z,7
2023-05-08T06:23:02.183Z,7
2023-05-08T06:35:02.023Z,7
2023-05-08T06:47:02.217Z,7
2023-05-08T06:59:08.133Z,7
2023-05-08T07:11:02.219Z,8
2023-05-08T07:23:02.084Z,8
2023-05-08T07:35:02.202Z,8
2023-05-08T07:47:02.245Z,8
2023-05-08T07:59:02.310Z,8
2023-05-08T08:11:03.778Z,9
2023-05-08T08:23:02.248Z,9
2023-05-08T08:35:02.255Z,9
2023-05-08T08:47:02.324Z,9
2023-05-08T08:59:02.159Z,9
2023-05-08T09:11:02.272Z,10
2023-05-08T09:23:02.311Z,10
2023-05-08T09:35:02.743Z,10
2023-05-08T09:47:02.207Z,10
2023-05-08T09:59:02.471Z,10
2023-05-08T10:11:02.437Z,11
2023-05-08T10:23:02.447Z,11
2023-05-08T10:35:02.252Z,11
2023-05-08T10:47:02.427Z,11
2023-05-08T10:59:02.357Z,11
2023-05-08T11:11:02.283Z,12
2023-05-08T11:23:02.416Z,12
2023-05-08T11:35:02.427Z,12
2023-05-08T11:47:02.376Z,12
2023-05-08T11:59:03.033Z,12
2023-05-08T12:11:02.457Z,13
2023-05-08T12:23:02.330Z,13
2023-05-08T12:35:02.452Z,13
2023-05-08T12:47:02.583Z,13
2023-05-08T12:59:02.466Z,13
2023-05-08T13:11:02.694Z,14
2023-05-08T13:23:02.552Z,14
2023-05-08T13:35:02.601Z,14
2023-05-08T13:47:02.407Z,14
2023-05-08T13:59:02.729Z,14
2023-05-08T14:11:02.678Z,15
2023-05-08T14:23:02.772Z,15
2023-05-08T14:35:03.256Z,15
2023-05-08T14:47:02.955Z,15
2023-05-08T14:59:02.475Z,15
2023-05-08T15:11:02.778Z,16
2023-05-08T15:23:02.564Z,16
2023-05-08T15:35:02.793Z,16
2023-05-08T15:47:02.614Z,16
2023-05-08T15:59:02.677Z,16
2023-05-08T16:11:02.522Z,17
2023-05-08T16:23:02.798Z,17
2023-05-08T16:35:02.755Z,17
2023-05-08T16:47:02.854Z,17
2023-05-08T16:59:03.254Z,17
2023-05-08T17:11:02.864Z,18
2023-05-08T17:23:02.659Z,18
2023-05-08T17:35:02.779Z,18
2023-05-08T17:47:02.775Z,18
2023-05-08T17:59:02.901Z,18
2023-05-08T18:11:02.742Z,19
2023-05-08T18:23:02.850Z,19
2023-05-08T18:35:02.705Z,0
2023-05-08T18:47:02.966Z,0
2023-05-08T18:59:02.804Z,0
2023-05-08T19:11:02.873Z,0
2023-05-08T19:23:02.707Z,0
2023-05-08T19:35:03.023Z,0
2023-05-08T19:47:04.022Z,0
2023-05-08T19:59:02.913Z,0
2023-05-08T20:11:02.935Z,0
2023-05-08T20:23:03.028Z,0
2023-05-08T20:35:02.949Z,0
2023-05-08T20:47:02.935Z,0
2023-05-08T20:59:02.973Z,0
2023-05-08T21:11:03.082Z,0
2023-05-08T21:23:02.899Z,0
2023-05-08T21:35:02.972Z,0
2023-05-08T21:47:03.012Z,0
2023-05-08T21:59:03.090Z,0
2023-05-08T22:11:02.952Z,0
2023-05-08T22:23:03.220Z,0
2023-05-08T22:35:03.052Z,0
2023-05-08T22:47:03.135Z,0
2023-05-08T22:59:02.955Z,0
2023-05-08T23:11:03.253Z,0
2023-05-08T23:23:03.080Z,0
2023-05-08T23:35:03.149Z,0
2023-05-08T23:47:03.021Z,0
2023-05-08T23:59:03.285Z,0
